Time;durP1;ratioP1;P1;durP2;ratioP2;P2;SDS_P1;SDS_P2;PMS_P1;PMS_P2;Temp;Humidity;BMP_temperature;BMP_pressure;BME280_temperature;BME280_humidity;BME280_pressure;Samples;Min_cycle;Max_cycle;Signal;HPM_P1;HPM_P2
2021/05/01 00:00:17;;;;;;;33.42;26.05;;;9.90;83.40;;;;;;2088788;28;20037;-71
2021/05/01 00:01:19;;;;;;;33.95;26.42;;;9.90;83.30;;;;;;2089029;28;20098;-72
2021/05/01 00:02:19;;;;;;;34.75;27.08;;;9.90;83.60;;;;;;2089144;28;20033;-72
2021/05/01 00:03:20;;;;;;;33.45;25.40;;;9.90;83.40;;;;;;2089665;28;20020;-72
2021/05/01 00:04:21;;;;;;;32.78;26.45;;;9.80;83.30;;;;;;2089210;28;20040;-72
2021/05/01 00:05:21;;;;;;;33.42;25.48;;;9.80;83.40;;;;;;2089172;28;20702;-72
2021/05/01 00:06:22;;;;;;;31.33;24.67;;;9.90;83.80;;;;;;2089676;28;20070;-72
2021/05/01 00:07:23;;;;;;;33.42;26.25;;;9.80;83.90;;;;;;2089530;28;20752;-71
2021/05/01 00:08:27;;;;;;;32.15;24.88;;;9.80;83.50;;;;;;2089855;28;20029;-72
2021/05/01 00:09:28;;;;;;;30.52;24.70;;;9.80;83.50;;;;;;2089633;28;20028;-71
2021/05/01 00:10:29;;;;;;;32.45;25.10;;;9.80;83.50;;;;;;2089211;28;20032;-72
2021/05/01 00:11:30;;;;;;;32.25;24.98;;;9.80;83.20;;;;;;2089833;28;20024;-70
2021/05/01 00:12:30;;;;;;;32.47;25.25;;;9.80;83.20;;;;;;2088889;28;20025;-71
2021/05/01 00:13:33;;;;;;;34.72;25.63;;;9.80;83.20;;;;;;2080718;28;20071;-70
2021/05/01 00:14:36;;;;;;;31.38;23.95;;;9.80;83.10;;;;;;2089052;28;20025;-71
2021/05/01 00:15:37;;;;;;;30.60;24.60;;;9.80;83.40;;;;;;2088878;28;20025;-72
2021/05/01 00:16:42;;;;;;;32.63;23.83;;;9.80;83.60;;;;;;2088923;28;20013;-71
2021/05/01 00:17:43;;;;;;;31.35;24.02;;;9.80;83.60;;;;;;2088938;28;20832;-70
2021/05/01 00:18:44;;;;;;;31.55;25.15;;;9.80;83.60;;;;;;2080115;28;20125;-72
2021/05/01 00:19:44;;;;;;;29.50;23.60;;;9.80;83.60;;;;;;2080364;28;20021;-70
2021/05/01 00:20:45;;;;;;;38.85;29.00;;;9.80;83.50;;;;;;2080912;28;20037;-72
2021/05/01 00:21:46;;;;;;;37.08;28.73;;;9.80;83.60;;;;;;2089112;28;20496;-71
2021/05/01 00:22:46;;;;;;;34.75;27.15;;;9.80;83.70;;;;;;2088933;28;20036;-72
2021/05/01 00:23:47;;;;;;;37.08;27.30;;;9.70;83.80;;;;;;2089034;28;20461;-71
2021/05/01 00:24:48;;;;;;;31.98;25.20;;;9.80;83.80;;;;;;2088893;28;20469;-70
2021/05/01 00:25:49;;;;;;;37.03;28.90;;;9.80;83.70;;;;;;2088895;28;20516;-71
2021/05/01 00:26:50;;;;;;;38.20;29.17;;;9.80;83.70;;;;;;2080569;28;20035;-71
2021/05/01 00:27:50;;;;;;;35.40;27.63;;;9.70;83.90;;;;;;2073182;28;20053;-71
2021/05/01 00:28:51;;;;;;;36.22;27.20;;;9.70;83.90;;;;;;2080950;28;20033;-71
2021/05/01 00:29:52;;;;;;;32.50;25.15;;;9.70;83.80;;;;;;2088964;28;20064;-71
2021/05/01 00:30:53;;;;;;;32.03;24.83;;;9.70;84.00;;;;;;2089416;28;20070;-71
2021/05/01 00:31:53;;;;;;;31.27;24.65;;;9.70;84.00;;;;;;2089645;28;20052;-71
2021/05/01 00:32:54;;;;;;;32.72;25.95;;;9.70;84.00;;;;;;2089524;28;20033;-71
2021/05/01 00:33:55;;;;;;;33.83;26.02;;;9.80;83.90;;;;;;2080526;28;20029;-70
2021/05/01 00:34:55;;;;;;;32.45;25.52;;;9.70;83.60;;;;;;2080606;28;20021;-71
2021/05/01 00:35:57;;;;;;;30.05;24.02;;;9.80;83.80;;;;;;2089478;28;20392;-71
2021/05/01 00:36:57;;;;;;;31.50;23.65;;;9.70;84.20;;;;;;2088727;28;20101;-71
2021/05/01 00:37:58;;;;;;;29.05;23.48;;;9.80;84.20;;;;;;2089008;28;20055;-69
2021/05/01 00:38:59;;;;;;;28.88;23.15;;;9.70;84.20;;;;;;2080619;28;20044;-70
2021/05/01 00:39:59;;;;;;;34.55;27.35;;;9.70;84.20;;;;;;2080398;28;20777;-70
2021/05/01 00:41:00;;;;;;;35.58;27.42;;;9.80;83.90;;;;;;2072485;28;20119;-71
2021/05/01 00:42:01;;;;;;;34.38;26.67;;;9.80;83.70;;;;;;2080748;28;20124;-71
2021/05/01 00:43:01;;;;;;;33.38;26.00;;;9.80;83.60;;;;;;2088824;28;20021;-70
2021/05/01 00:44:09;;;;;;;33.20;25.85;;;9.80;83.70;;;;;;2088836;28;20067;-71
2021/05/01 00:45:10;;;;;;;31.25;24.52;;;9.80;83.80;;;;;;2080639;28;20590;-70
2021/05/01 00:46:11;;;;;;;35.22;27.13;;;9.80;83.90;;;;;;2072397;28;20083;-70
2021/05/01 00:47:11;;;;;;;34.95;26.88;;;9.80;84.00;;;;;;2088847;28;20076;-70
2021/05/01 00:48:12;;;;;;;35.30;27.52;;;9.80;83.90;;;;;;2089648;28;20025;-70
2021/05/01 00:49:13;;;;;;;34.75;27.60;;;9.80;84.50;;;;;;2089500;28;20053;-70
2021/05/01 00:50:14;;;;;;;35.25;27.23;;;9.80;83.60;;;;;;2088357;28;20029;-70
2021/05/01 00:51:15;;;;;;;35.30;26.48;;;9.80;83.70;;;;;;2088885;28;20033;-70
2021/05/01 00:52:15;;;;;;;39.53;28.13;;;9.80;83.70;;;;;;2088877;28;20013;-70
2021/05/01 00:53:16;;;;;;;34.20;26.27;;;9.80;83.70;;;;;;2088724;28;20025;-70
2021/05/01 00:54:17;;;;;;;36.38;27.27;;;9.80;83.60;;;;;;2088836;28;20491;-70
2021/05/01 00:55:17;;;;;;;35.15;26.60;;;9.80;83.90;;;;;;2089338;28;20013;-70
2021/05/01 00:56:18;;;;;;;32.47;25.48;;;9.80;84.10;;;;;;2088601;28;20419;-70
2021/05/01 00:57:19;;;;;;;31.88;25.38;;;9.70;84.20;;;;;;2088911;28;20032;-71
2021/05/01 00:58:21;;;;;;;35.78;27.85;;;9.70;84.20;;;;;;2076501;28;20571;-71
2021/05/01 00:59:22;;;;;;;33.83;25.48;;;9.70;84.40;;;;;;2085021;28;20437;-71
2021/05/01 01:00:37;;;;;;;34.80;27.23;;;9.70;84.50;;;;;;2092177;28;20033;-71
2021/05/01 01:01:47;;;;;;;38.88;28.52;;;9.70;84.50;;;;;;2088864;28;20043;-72
2021/05/01 01:02:48;;;;;;;36.83;27.20;;;9.80;84.20;;;;;;2089656;28;20480;-71
2021/05/01 01:03:49;;;;;;;37.35;28.10;;;9.80;84.10;;;;;;2088767;28;20025;-70
2021/05/01 01:04:50;;;;;;;35.40;27.65;;;9.80;84.30;;;;;;2089269;28;20396;-71
2021/05/01 01:05:51;;;;;;;35.53;27.55;;;9.70;84.20;;;;;;2080391;28;20029;-70
2021/05/01 01:06:52;;;;;;;34.30;27.10;;;9.70;84.20;;;;;;2080386;28;20021;-71
2021/05/01 01:07:52;;;;;;;32.65;24.95;;;9.70;84.30;;;;;;2080287;28;20140;-71
2021/05/01 01:08:53;;;;;;;31.67;24.95;;;9.70;84.60;;;;;;2088655;28;20076;-70
2021/05/01 01:09:54;;;;;;;32.33;25.73;;;9.70;84.80;;;;;;2088938;28;20029;-71
2021/05/01 01:10:55;;;;;;;32.30;25.15;;;9.70;84.80;;;;;;2089285;28;20037;-70
2021/05/01 01:11:55;;;;;;;32.92;25.55;;;9.70;84.90;;;;;;2089357;28;20376;-71
2021/05/01 01:12:56;;;;;;;35.28;26.70;;;9.70;85.00;;;;;;2089304;28;20047;-71
2021/05/01 01:13:59;;;;;;;32.35;25.42;;;9.70;84.80;;;;;;2089527;28;20112;-71
2021/05/01 01:15:00;;;;;;;32.78;24.85;;;9.70;84.60;;;;;;2089394;28;20025;-71
2021/05/01 01:16:01;;;;;;;33.78;25.98;;;9.70;84.60;;;;;;2089367;28;20491;-71
2021/05/01 01:17:02;;;;;;;34.92;26.30;;;9.70;84.60;;;;;;2089140;28;20040;-71
2021/05/01 01:18:03;;;;;;;36.38;26.45;;;9.70;84.60;;;;;;2089412;28;20122;-71
2021/05/01 01:19:03;;;;;;;35.08;27.42;;;9.70;84.70;;;;;;2089197;28;20072;-71
2021/05/01 01:20:05;;;;;;;33.45;26.10;;;9.70;84.60;;;;;;2088858;28;20483;-71
2021/05/01 01:21:06;;;;;;;32.42;25.00;;;9.70;84.50;;;;;;2089234;28;20060;-71
2021/05/01 01:22:14;;;;;;;33.67;25.65;;;9.70;84.70;;;;;;2089325;28;20051;-71
2021/05/01 01:23:15;;;;;;;35.30;26.52;;;9.70;84.80;;;;;;2088821;28;20677;-71
2021/05/01 01:24:17;;;;;;;34.88;27.35;;;9.70;85.00;;;;;;2091607;28;20028;-70
2021/05/01 01:25:18;;;;;;;34.95;26.20;;;9.70;84.90;;;;;;2093671;28;20051;-71
2021/05/01 01:26:19;;;;;;;35.85;27.20;;;9.70;85.10;;;;;;2091528;28;20032;-71
2021/05/01 01:27:20;;;;;;;34.47;26.48;;;9.60;85.20;;;;;;2093759;28;20017;-71
2021/05/01 01:28:21;;;;;;;33.78;26.00;;;9.60;85.30;;;;;;2094196;28;20040;-71
2021/05/01 01:29:22;;;;;;;31.10;25.00;;;9.60;85.50;;;;;;2093360;28;20024;-71
2021/05/01 01:30:30;;;;;;;34.65;26.20;;;9.60;85.60;;;;;;2091179;28;20039;-70
2021/05/01 01:31:32;;;;;;;37.58;28.73;;;9.60;85.70;;;;;;2092857;28;20033;-71
2021/05/01 01:32:32;;;;;;;36.67;27.77;;;9.60;85.60;;;;;;2091365;28;20041;-70
2021/05/01 01:33:34;;;;;;;35.08;27.30;;;9.60;85.40;;;;;;2099650;28;20016;-71
2021/05/01 01:34:35;;;;;;;32.85;25.58;;;9.70;85.40;;;;;;2091525;28;20122;-71
2021/05/01 01:35:36;;;;;;;32.95;25.45;;;9.60;86.10;;;;;;2095327;28;20033;-71
2021/05/01 01:36:37;;;;;;;31.85;24.65;;;9.60;85.50;;;;;;2090018;28;20396;-70
2021/05/01 01:37:43;;;;;;;31.38;24.15;;;9.60;85.60;;;;;;2078425;28;20021;-71
2021/05/01 01:38:43;;;;;;;30.75;24.45;;;9.60;86.00;;;;;;2089296;28;20040;-70
2021/05/01 01:39:44;;;;;;;30.77;23.33;;;9.50;86.10;;;;;;2089374;28;20031;-72
2021/05/01 01:40:44;;;;;;;30.10;24.55;;;9.50;86.20;;;;;;2089018;28;20025;-72
2021/05/01 01:41:45;;;;;;;32.35;24.67;;;9.60;86.30;;;;;;2088927;28;20403;-71
2021/05/01 01:42:46;;;;;;;31.20;24.38;;;9.50;86.30;;;;;;2088331;28;20100;-71
2021/05/01 01:43:47;;;;;;;30.13;23.50;;;9.50;86.40;;;;;;2088301;28;20515;-71
2021/05/01 01:44:48;;;;;;;33.28;25.08;;;9.50;86.30;;;;;;2088790;28;20112;-72
2021/05/01 01:45:48;;;;;;;35.47;25.92;;;9.50;87.00;;;;;;2088979;28;20021;-71
2021/05/01 01:46:49;;;;;;;32.28;25.55;;;9.60;86.20;;;;;;2088925;28;20428;-71
2021/05/01 01:47:50;;;;;;;31.33;25.15;;;9.50;85.90;;;;;;2097010;28;20491;-73
2021/05/01 01:48:51;;;;;;;30.02;23.58;;;9.50;85.90;;;;;;2080809;28;20025;-71
2021/05/01 01:49:51;;;;;;;31.25;24.60;;;9.50;86.00;;;;;;2087754;28;20024;-72
2021/05/01 01:50:52;;;;;;;29.83;23.45;;;9.60;86.10;;;;;;2088187;28;20062;-71
2021/05/01 01:51:53;;;;;;;31.60;23.95;;;9.50;86.00;;;;;;2088432;28;20029;-71
2021/05/01 01:52:53;;;;;;;28.63;22.98;;;9.50;86.20;;;;;;2088275;28;20075;-71
2021/05/01 01:53:54;;;;;;;31.90;24.77;;;9.50;86.30;;;;;;2088875;28;20106;-72
2021/05/01 01:54:55;;;;;;;30.70;24.30;;;9.50;86.30;;;;;;2089160;28;20029;-72
2021/05/01 01:55:55;;;;;;;30.85;24.65;;;9.50;86.60;;;;;;2089169;28;20036;-72
2021/05/01 01:56:59;;;;;;;34.33;26.17;;;9.50;86.70;;;;;;2088954;28;20025;-71
2021/05/01 01:57:59;;;;;;;35.97;26.23;;;9.50;86.70;;;;;;2085187;28;20026;-71
2021/05/01 01:59:00;;;;;;;33.60;25.42;;;9.50;86.60;;;;;;2088839;28;20032;-71
2021/05/01 02:00:03;;;;;;;32.22;24.77;;;9.50;86.60;;;;;;2088632;28;20029;-71
2021/05/01 02:01:13;;;;;;;32.58;25.35;;;9.50;86.60;;;;;;2088839;28;20021;-72
2021/05/01 02:02:13;;;;;;;32.65;24.17;;;9.50;86.70;;;;;;2088858;28;20036;-71
2021/05/01 02:03:14;;;;;;;29.48;23.67;;;9.50;86.80;;;;;;2088887;28;20381;-71
2021/05/01 02:04:15;;;;;;;33.40;25.77;;;9.40;86.80;;;;;;2088062;28;20025;-71
2021/05/01 02:05:16;;;;;;;34.75;25.58;;;9.40;86.90;;;;;;2088236;28;20492;-71
2021/05/01 02:06:17;;;;;;;33.58;26.38;;;9.50;86.90;;;;;;2088862;28;20032;-72
2021/05/01 02:07:17;;;;;;;34.85;26.83;;;9.40;86.80;;;;;;2088714;28;20484;-71
2021/05/01 02:08:18;;;;;;;34.53;25.77;;;9.50;86.90;;;;;;2088821;28;20498;-71
2021/05/01 02:09:19;;;;;;;32.17;25.02;;;9.40;86.80;;;;;;2088951;28;20051;-72
2021/05/01 02:10:19;;;;;;;32.47;24.70;;;9.50;87.10;;;;;;2088580;28;20029;-72
2021/05/01 02:11:20;;;;;;;33.05;25.13;;;9.40;87.00;;;;;;2088932;28;20385;-71
2021/05/01 02:12:21;;;;;;;32.08;24.63;;;9.50;87.10;;;;;;2088964;28;20540;-71
2021/05/01 02:13:21;;;;;;;30.15;24.05;;;9.40;87.20;;;;;;2088329;28;20145;-71
2021/05/01 02:14:22;;;;;;;28.83;23.60;;;9.40;87.30;;;;;;2088481;28;20025;-71
2021/05/01 02:15:23;;;;;;;30.27;22.88;;;9.40;87.30;;;;;;2088350;28;20463;-72
2021/05/01 02:16:24;;;;;;;28.85;22.95;;;9.40;87.40;;;;;;2088728;28;20108;-72
2021/05/01 02:17:24;;;;;;;31.45;24.17;;;9.40;87.60;;;;;;2089171;28;20033;-71
2021/05/01 02:18:25;;;;;;;29.83;23.80;;;9.40;87.60;;;;;;2089543;28;20455;-71
2021/05/01 02:19:25;;;;;;;33.22;26.05;;;9.40;87.80;;;;;;2089302;28;20052;-72
2021/05/01 02:20:33;;;;;;;33.65;25.40;;;9.40;87.80;;;;;;2088507;28;20154;-71
2021/05/01 02:21:33;;;;;;;31.90;24.73;;;9.40;87.80;;;;;;2096295;28;20024;-72
2021/05/01 02:22:34;;;;;;;33.65;26.38;;;9.40;87.80;;;;;;2091210;28;20032;-71
2021/05/01 02:23:35;;;;;;;31.38;24.65;;;9.40;87.70;;;;;;2088047;28;20100;-71
2021/05/01 02:24:36;;;;;;;34.20;26.05;;;9.40;87.70;;;;;;2088168;28;20511;-71
2021/05/01 02:25:37;;;;;;;32.90;25.38;;;9.40;87.90;;;;;;2088285;28;20028;-71
2021/05/01 02:26:38;;;;;;;38.38;27.00;;;9.40;87.90;;;;;;2088054;28;20465;-71
2021/05/01 02:27:40;;;;;;;36.13;26.63;;;9.40;87.80;;;;;;2086377;28;20039;-71
2021/05/01 02:28:41;;;;;;;33.13;25.08;;;9.40;87.40;;;;;;2086750;28;20067;-72
2021/05/01 02:29:42;;;;;;;32.75;25.73;;;9.50;87.40;;;;;;2086694;28;20122;-72
2021/05/01 02:30:42;;;;;;;31.38;24.30;;;9.50;87.40;;;;;;2088460;28;20033;-71
2021/05/01 02:31:43;;;;;;;31.63;24.88;;;9.40;87.40;;;;;;2087820;28;20480;-71
2021/05/01 02:32:45;;;;;;;30.27;24.10;;;9.40;87.60;;;;;;2087993;28;20025;-71
2021/05/01 02:33:45;;;;;;;32.13;24.80;;;9.40;87.80;;;;;;2087951;28;20057;-71
2021/05/01 02:34:46;;;;;;;35.75;26.40;;;9.30;87.80;;;;;;2087467;28;20032;-71
2021/05/01 02:35:47;;;;;;;33.95;26.40;;;9.30;87.90;;;;;;2088390;28;20021;-71
2021/05/01 02:36:47;;;;;;;35.72;26.40;;;9.40;87.80;;;;;;2087920;28;20179;-71
2021/05/01 02:37:49;;;;;;;33.50;25.60;;;9.40;87.50;;;;;;2087907;28;20028;-71
2021/05/01 02:38:51;;;;;;;33.95;26.25;;;9.40;87.50;;;;;;2088066;28;20103;-73
2021/05/01 02:39:52;;;;;;;29.98;24.75;;;9.30;87.70;;;;;;2088173;28;20459;-71
2021/05/01 02:40:52;;;;;;;34.92;26.08;;;9.30;87.80;;;;;;2088613;28;20546;-71
2021/05/01 02:41:53;;;;;;;32.95;25.55;;;9.40;88.00;;;;;;2088297;28;20020;-71
2021/05/01 02:42:53;;;;;;;33.83;25.10;;;9.30;87.90;;;;;;2088550;28;20641;-71
2021/05/01 02:43:54;;;;;;;33.85;25.45;;;9.30;88.00;;;;;;2088591;28;20087;-72
2021/05/01 02:44:55;;;;;;;34.03;25.83;;;9.30;88.10;;;;;;2087819;28;20123;-71
2021/05/01 02:45:55;;;;;;;32.72;25.05;;;9.30;88.50;;;;;;2087854;28;20067;-71
2021/05/01 02:46:56;;;;;;;33.20;24.90;;;9.30;88.10;;;;;;2088502;28;20025;-71
2021/05/01 02:47:57;;;;;;;33.00;25.40;;;9.30;88.40;;;;;;2088459;28;20431;-72
2021/05/01 02:48:57;;;;;;;33.60;25.88;;;9.30;88.40;;;;;;2088489;28;20041;-71
2021/05/01 02:49:58;;;;;;;36.88;26.02;;;9.30;88.40;;;;;;2088154;28;20377;-71
2021/05/01 02:50:59;;;;;;;32.42;25.23;;;9.30;88.30;;;;;;2087727;28;20121;-71
2021/05/01 02:51:59;;;;;;;34.35;26.23;;;9.30;88.30;;;;;;2087902;28;20036;-71
2021/05/01 02:53:00;;;;;;;33.20;25.20;;;9.30;88.30;;;;;;2088495;28;20052;-71
2021/05/01 02:54:01;;;;;;;33.42;25.33;;;9.30;88.30;;;;;;2088597;28;20361;-72
2021/05/01 02:55:03;;;;;;;33.83;25.40;;;9.30;88.50;;;;;;2087781;28;20032;-71
2021/05/01 02:56:04;;;;;;;31.58;24.30;;;9.30;88.60;;;;;;2087814;28;20033;-71
2021/05/01 02:57:05;;;;;;;30.60;24.50;;;9.20;88.80;;;;;;2088525;28;20033;-72
2021/05/01 02:58:05;;;;;;;30.30;23.80;;;9.20;88.90;;;;;;2084324;28;20038;-71
2021/05/01 02:59:06;;;;;;;32.03;24.58;;;9.20;89.10;;;;;;2087865;28;20029;-71
2021/05/01 03:00:10;;;;;;;34.08;25.52;;;9.20;89.20;;;;;;2087430;28;20644;-71
2021/05/01 03:01:11;;;;;;;33.47;25.58;;;9.20;89.10;;;;;;2082887;28;20035;-71
2021/05/01 03:02:11;;;;;;;30.05;24.52;;;9.20;89.20;;;;;;2084998;28;20480;-71
2021/05/01 03:03:12;;;;;;;33.72;25.75;;;9.20;89.50;;;;;;2087852;28;20512;-71
2021/05/01 03:04:13;;;;;;;34.28;26.00;;;9.20;89.60;;;;;;2088024;28;20562;-70
2021/05/01 03:05:15;;;;;;;31.30;24.50;;;9.20;89.60;;;;;;2091235;28;20028;-72
2021/05/01 03:06:15;;;;;;;35.60;25.88;;;9.20;89.60;;;;;;2092553;28;20017;-71
2021/05/01 03:07:16;;;;;;;35.20;26.88;;;9.10;89.50;;;;;;2088408;28;20053;-71
2021/05/01 03:08:17;;;;;;;32.55;25.15;;;9.10;90.00;;;;;;2088398;28;20092;-71
2021/05/01 03:09:17;;;;;;;33.20;24.63;;;9.20;90.10;;;;;;2088408;28;20023;-71
2021/05/01 03:10:22;;;;;;;33.25;24.42;;;9.20;90.00;;;;;;2087976;28;20082;-70
2021/05/01 03:11:22;;;;;;;31.42;24.70;;;9.10;90.00;;;;;;2088462;28;20516;-71
2021/05/01 03:12:23;;;;;;;29.58;23.25;;;9.10;90.00;;;;;;2088389;28;20028;-71
2021/05/01 03:13:23;;;;;;;29.38;22.75;;;9.20;90.00;;;;;;2087733;28;20021;-71
2021/05/01 03:14:25;;;;;;;30.48;24.10;;;9.20;90.00;;;;;;2087770;28;20491;-71
2021/05/01 03:15:26;;;;;;;29.48;23.45;;;9.20;90.10;;;;;;2088485;28;20552;-72
2021/05/01 03:16:26;;;;;;;30.73;23.20;;;9.10;90.10;;;;;;2088360;28;20028;-71
2021/05/01 03:17:27;;;;;;;31.58;24.70;;;9.10;90.10;;;;;;2079447;28;20026;-71
2021/05/01 03:18:28;;;;;;;31.40;24.77;;;9.10;90.10;;;;;;2079633;28;20032;-71
2021/05/01 03:19:28;;;;;;;30.67;24.35;;;9.20;90.00;;;;;;2088478;28;20151;-71
2021/05/01 03:20:29;;;;;;;29.70;23.75;;;9.20;90.00;;;;;;2088131;28;20017;-71
2021/05/01 03:21:32;;;;;;;28.02;22.17;;;9.20;90.00;;;;;;2087892;28;20036;-72
2021/05/01 03:22:33;;;;;;;30.38;22.77;;;9.20;90.40;;;;;;2087960;28;20488;-71
2021/05/01 03:23:34;;;;;;;27.73;22.23;;;9.20;90.10;;;;;;2088461;28;20132;-72
2021/05/01 03:24:36;;;;;;;33.08;25.60;;;9.20;90.10;;;;;;2088374;28;20028;-71
2021/05/01 03:25:36;;;;;;;29.63;23.70;;;9.20;90.10;;;;;;2088383;28;20059;-71
2021/05/01 03:26:37;;;;;;;31.30;24.25;;;9.20;90.10;;;;;;2088451;28;20496;-71
2021/05/01 03:27:38;;;;;;;30.85;24.05;;;9.20;90.00;;;;;;2085714;28;20050;-70
2021/05/01 03:28:39;;;;;;;28.77;22.70;;;9.20;90.00;;;;;;2086392;28;20016;-70
2021/05/01 03:29:39;;;;;;;31.35;24.23;;;9.20;90.10;;;;;;2087868;28;20051;-71
2021/05/01 03:30:40;;;;;;;34.35;26.50;;;9.20;90.20;;;;;;2087963;28;20029;-71
2021/05/01 03:31:41;;;;;;;32.78;25.40;;;9.20;90.30;;;;;;2088471;28;20392;-71
2021/05/01 03:32:42;;;;;;;35.95;28.20;;;9.20;90.40;;;;;;2088476;28;20024;-71
2021/05/01 03:33:43;;;;;;;38.50;30.02;;;9.20;90.50;;;;;;2088457;28;20103;-71
2021/05/01 03:34:44;;;;;;;38.92;29.65;;;9.10;90.60;;;;;;2087859;28;20071;-71
2021/05/01 03:35:44;;;;;;;36.08;28.05;;;9.10;90.90;;;;;;2088037;28;20518;-73
2021/05/01 03:36:45;;;;;;;34.05;26.52;;;9.00;90.90;;;;;;2088440;28;20051;-71
2021/05/01 03:37:46;;;;;;;33.92;25.85;;;9.00;90.90;;;;;;2087824;28;20033;-71
2021/05/01 03:38:46;;;;;;;32.90;25.00;;;9.10;91.00;;;;;;2087383;28;20025;-73
2021/05/01 03:39:47;;;;;;;34.95;27.13;;;9.00;91.00;;;;;;2079718;28;20021;-73
2021/05/01 03:40:49;;;;;;;37.03;27.77;;;9.10;90.90;;;;;;2087692;28;20075;-71
2021/05/01 03:41:50;;;;;;;34.95;26.63;;;9.10;90.80;;;;;;2088364;28;20049;-71
2021/05/01 03:42:51;;;;;;;35.47;27.27;;;9.10;90.80;;;;;;2087707;28;20029;-72
2021/05/01 03:43:52;;;;;;;36.35;28.52;;;9.10;90.80;;;;;;2087757;28;20048;-71
2021/05/01 03:44:52;;;;;;;36.80;28.23;;;9.10;90.90;;;;;;2088416;28;20036;-70
2021/05/01 03:45:53;;;;;;;35.53;27.75;;;9.10;91.00;;;;;;2087716;28;20082;-71
2021/05/01 03:46:55;;;;;;;33.50;26.35;;;9.10;91.10;;;;;;2087770;28;20834;-71
2021/05/01 03:47:55;;;;;;;37.55;28.75;;;9.00;91.10;;;;;;2088305;28;20072;-71
2021/05/01 03:48:56;;;;;;;34.63;27.15;;;9.10;91.10;;;;;;2087608;28;20033;-71
2021/05/01 03:49:57;;;;;;;36.13;27.33;;;9.10;91.00;;;;;;2087346;28;20029;-71
2021/05/01 03:50:58;;;;;;;35.92;26.67;;;9.00;91.00;;;;;;2088316;28;20029;-72
2021/05/01 03:51:58;;;;;;;33.22;25.98;;;9.00;91.10;;;;;;2088071;28;20539;-71
2021/05/01 03:52:59;;;;;;;31.80;25.13;;;9.00;91.10;;;;;;2087929;28;20078;-72
2021/05/01 03:54:00;;;;;;;33.00;25.02;;;9.00;91.20;;;;;;2089018;28;20124;-71
2021/05/01 03:55:01;;;;;;;29.20;23.85;;;9.00;91.20;;;;;;2089921;28;20071;-71
2021/05/01 03:56:02;;;;;;;29.45;23.48;;;9.00;91.30;;;;;;2089717;28;20021;-71
2021/05/01 03:57:02;;;;;;;29.58;23.30;;;9.00;91.30;;;;;;2089748;28;20025;-71
2021/05/01 03:58:03;;;;;;;29.13;23.10;;;9.00;91.30;;;;;;2086206;28;20084;-71
2021/05/01 03:59:04;;;;;;;29.40;24.02;;;9.00;91.30;;;;;;2089046;28;20036;-71
2021/05/01 04:00:07;;;;;;;30.48;23.45;;;9.00;91.30;;;;;;2088856;28;20032;-72
2021/05/01 04:01:08;;;;;;;30.08;23.58;;;9.00;91.40;;;;;;2089176;28;20021;-71
2021/05/01 04:02:08;;;;;;;31.95;24.58;;;9.00;91.30;;;;;;2089041;28;20031;-71
2021/05/01 04:03:09;;;;;;;31.65;24.00;;;9.00;91.30;;;;;;2089759;28;20072;-71
2021/05/01 04:04:10;;;;;;;32.05;24.65;;;9.00;91.30;;;;;;2089703;28;20052;-71
2021/05/01 04:05:13;;;;;;;34.97;25.58;;;9.00;91.10;;;;;;2089782;28;20052;-71
2021/05/01 04:06:13;;;;;;;35.95;26.30;;;9.00;91.10;;;;;;2088961;28;20027;-71
2021/05/01 04:07:14;;;;;;;34.67;25.95;;;9.00;91.00;;;;;;2088963;28;20040;-71
2021/05/01 04:08:14;;;;;;;32.17;24.88;;;9.00;90.90;;;;;;2089837;28;20445;-71
2021/05/01 04:09:15;;;;;;;32.25;24.98;;;9.10;91.00;;;;;;2089693;28;20475;-71
2021/05/01 04:10:16;;;;;;;32.03;25.23;;;9.00;90.90;;;;;;2089344;28;20025;-72
2021/05/01 04:11:17;;;;;;;30.70;24.40;;;9.00;90.90;;;;;;2089800;28;20159;-71
2021/05/01 04:12:18;;;;;;;30.98;23.52;;;9.10;91.00;;;;;;2089137;28;20021;-72
2021/05/01 04:13:18;;;;;;;32.83;25.05;;;9.00;91.00;;;;;;2089158;28;20033;-71
2021/05/01 04:14:19;;;;;;;31.20;24.23;;;9.10;91.00;;;;;;2089869;28;20029;-72
2021/05/01 04:15:19;;;;;;;30.88;24.30;;;9.10;91.10;;;;;;2089077;28;20017;-71
2021/05/01 04:16:20;;;;;;;27.83;23.10;;;9.10;91.00;;;;;;2089078;28;20713;-71
2021/05/01 04:17:21;;;;;;;31.08;24.38;;;9.10;91.10;;;;;;2090025;28;20071;-71
2021/05/01 04:18:21;;;;;;;29.65;22.83;;;9.00;91.10;;;;;;2089117;28;20064;-71
2021/05/01 04:19:22;;;;;;;31.23;23.60;;;9.10;91.20;;;;;;2089073;28;20057;-71
2021/05/01 04:20:23;;;;;;;29.92;23.65;;;9.10;91.20;;;;;;2089469;28;20025;-71
2021/05/01 04:21:23;;;;;;;28.75;22.30;;;9.00;91.20;;;;;;2089049;28;20447;-72
2021/05/01 04:22:24;;;;;;;29.70;23.92;;;9.00;91.20;;;;;;2080844;28;20021;-72
2021/05/01 04:23:25;;;;;;;27.55;22.60;;;9.00;91.20;;;;;;2089021;28;20032;-71
2021/05/01 04:24:26;;;;;;;28.25;22.52;;;9.10;91.30;;;;;;2089539;28;20021;-71
2021/05/01 04:25:26;;;;;;;29.00;22.15;;;9.10;91.20;;;;;;2089743;28;20664;-72
2021/05/01 04:26:27;;;;;;;27.27;21.70;;;9.10;91.20;;;;;;2088922;28;20064;-71
2021/05/01 04:27:29;;;;;;;27.63;22.27;;;9.10;91.20;;;;;;2088150;28;20048;-71
2021/05/01 04:28:31;;;;;;;26.58;21.73;;;9.10;91.20;;;;;;2086897;28;20450;-71
2021/05/01 04:29:31;;;;;;;29.00;21.73;;;9.10;91.10;;;;;;2089639;28;20035;-71
2021/05/01 04:30:33;;;;;;;26.98;21.48;;;9.10;91.00;;;;;;2089034;28;20040;-72
2021/05/01 04:31:33;;;;;;;27.67;22.25;;;9.10;91.00;;;;;;2089499;28;20468;-70
2021/05/01 04:32:35;;;;;;;25.20;20.95;;;9.10;90.80;;;;;;2089528;28;20021;-71
2021/05/01 04:33:35;;;;;;;26.75;21.33;;;9.10;90.90;;;;;;2089489;28;20028;-70
2021/05/01 04:34:36;;;;;;;25.38;20.30;;;9.10;90.90;;;;;;2089525;28;20051;-71
2021/05/01 04:35:36;;;;;;;28.02;22.40;;;9.10;90.90;;;;;;2088705;28;20083;-72
2021/05/01 04:36:37;;;;;;;28.83;22.25;;;9.10;90.80;;;;;;2088772;28;20527;-72
2021/05/01 04:37:38;;;;;;;25.98;20.83;;;9.10;90.70;;;;;;2088866;28;20066;-70
2021/05/01 04:38:38;;;;;;;25.73;20.42;;;9.10;90.70;;;;;;2080605;28;20025;-71
2021/05/01 04:39:39;;;;;;;24.95;19.73;;;9.10;90.80;;;;;;2088868;28;20561;-71
2021/05/01 04:40:40;;;;;;;24.77;19.63;;;9.10;90.80;;;;;;2088473;28;20036;-70
2021/05/01 04:41:41;;;;;;;26.73;20.20;;;9.10;90.80;;;;;;2088921;28;20029;-71
2021/05/01 04:42:48;;;;;;;28.33;22.10;;;9.10;90.70;;;;;;2089383;28;20028;-71
2021/05/01 04:43:48;;;;;;;29.77;23.48;;;9.10;90.60;;;;;;2089394;28;20096;-71
2021/05/01 04:44:49;;;;;;;29.17;22.58;;;9.20;90.50;;;;;;2089408;28;20602;-72
2021/05/01 04:45:57;;;;;;;28.58;21.80;;;9.20;90.40;;;;;;2088836;28;20029;-73
2021/05/01 04:46:58;;;;;;;27.33;21.70;;;9.10;90.50;;;;;;2088731;28;20122;-71
2021/05/01 04:47:59;;;;;;;28.80;21.42;;;9.20;90.60;;;;;;2088778;28;20041;-70
2021/05/01 04:49:03;;;;;;;27.05;21.15;;;9.10;90.60;;;;;;2088894;28;20111;-71
2021/05/01 04:50:05;;;;;;;29.50;21.50;;;9.10;90.70;;;;;;2088999;28;20029;-71
2021/05/01 04:51:05;;;;;;;24.58;19.80;;;9.10;90.80;;;;;;2089461;28;20435;-71
2021/05/01 04:52:06;;;;;;;26.00;21.00;;;9.10;90.80;;;;;;2089485;28;20029;-71
2021/05/01 04:53:07;;;;;;;27.70;21.98;;;9.10;90.80;;;;;;2089307;28;20086;-71
2021/05/01 04:54:08;;;;;;;27.23;21.92;;;9.10;91.10;;;;;;2089323;28;20111;-71
2021/05/01 04:55:14;;;;;;;29.67;22.60;;;9.10;90.70;;;;;;2089399;28;20396;-71
2021/05/01 04:56:15;;;;;;;26.65;21.23;;;9.10;90.70;;;;;;2088956;28;20051;-71
2021/05/01 04:57:16;;;;;;;26.35;21.50;;;9.10;90.70;;;;;;2088914;28;20029;-72
2021/05/01 04:58:16;;;;;;;28.15;21.30;;;9.10;90.70;;;;;;2085610;28;20021;-71
2021/05/01 04:59:17;;;;;;;26.98;21.45;;;9.20;90.70;;;;;;2089459;28;20450;-71
2021/05/01 05:00:19;;;;;;;25.45;20.90;;;9.20;90.70;;;;;;2089040;28;20026;-72
2021/05/01 05:01:20;;;;;;;26.73;21.13;;;9.20;90.60;;;;;;2089409;28;20021;-72
2021/05/01 05:02:20;;;;;;;27.25;20.90;;;9.20;90.60;;;;;;2089447;28;20112;-72
2021/05/01 05:03:21;;;;;;;25.75;20.50;;;9.20;90.60;;;;;;2089355;28;20017;-72
2021/05/01 05:04:21;;;;;;;27.25;21.38;;;9.20;90.50;;;;;;2089237;28;20036;-71
2021/05/01 05:05:23;;;;;;;26.23;20.70;;;9.20;90.40;;;;;;2092986;28;20040;-72
2021/05/01 05:06:23;;;;;;;26.15;20.70;;;9.30;90.40;;;;;;2088595;28;20116;-71
2021/05/01 05:07:24;;;;;;;27.27;20.60;;;9.30;90.40;;;;;;2092146;28;20407;-71
2021/05/01 05:08:25;;;;;;;26.23;20.20;;;9.30;90.40;;;;;;2088604;28;20069;-71
2021/05/01 05:09:25;;;;;;;26.33;20.45;;;9.30;90.30;;;;;;2088619;28;20025;-71
2021/05/01 05:10:26;;;;;;;27.77;21.23;;;9.30;90.20;;;;;;2088775;28;20036;-72
2021/05/01 05:11:26;;;;;;;28.85;21.98;;;9.30;90.20;;;;;;2089322;28;20049;-71
2021/05/01 05:12:27;;;;;;;26.60;21.00;;;9.30;90.30;;;;;;2089153;28;20447;-70
2021/05/01 05:13:28;;;;;;;25.55;20.25;;;9.30;90.40;;;;;;2088598;28;20035;-71